Time;durP1;ratioP1;P1;durP2;ratioP2;P2;SDS_P1;SDS_P2;PMS_P1;PMS_P2;Temp;Humidity;BMP_temperature;BMP_pressure;BME280_temperature;BME280_humidity;BME280_pressure;Samples;Min_cycle;Max_cycle;Signal;HPM_P1;HPM_P2
2024/02/24 00:00:44;;;;;;;43.60;6.85;;;9.50;90.20;;;;;;5048486;28;20018;-50
2024/02/24 00:03:10;;;;;;;40.55;6.20;;;9.40;90.20;;;;;;5030844;28;20036;-50
2024/02/24 00:05:35;;;;;;;31.42;6.15;;;9.40;90.30;;;;;;5048420;28;20052;-50
2024/02/24 00:08:01;;;;;;;27.58;6.03;;;9.40;90.30;;;;;;5047211;28;20029;-50
2024/02/24 00:10:27;;;;;;;37.00;6.80;;;9.40;90.30;;;;;;5030648;28;20045;-50
2024/02/24 00:12:52;;;;;;;33.05;6.63;;;9.40;90.30;;;;;;5030363;28;20029;-50
2024/02/24 00:15:18;;;;;;;29.40;5.45;;;9.40;90.30;;;;;;5047271;28;20040;-50
2024/02/24 00:17:43;;;;;;;36.53;5.22;;;9.30;90.30;;;;;;5048245;28;20043;-50
2024/02/24 00:20:10;;;;;;;37.03;6.35;;;9.30;90.40;;;;;;5030498;28;20053;-51
2024/02/24 00:22:36;;;;;;;30.30;5.35;;;9.30;90.40;;;;;;5047036;28;20030;-50
2024/02/24 00:25:02;;;;;;;43.15;5.47;;;9.30;90.40;;;;;;5048155;28;20036;-50
2024/02/24 00:27:28;;;;;;;37.03;6.20;;;9.30;90.40;;;;;;5048071;28;20100;-50
2024/02/24 00:29:54;;;;;;;28.80;5.15;;;9.30;90.40;;;;;;5048062;28;20029;-50
2024/02/24 00:32:19;;;;;;;26.92;4.65;;;9.30;90.40;;;;;;5048096;28;20029;-50
2024/02/24 00:34:45;;;;;;;26.27;5.25;;;9.20;90.50;;;;;;5030271;28;20029;-50
2024/02/24 00:37:11;;;;;;;18.90;5.25;;;9.20;90.40;;;;;;5047730;28;20037;-50
2024/02/24 00:39:37;;;;;;;25.60;4.75;;;9.20;90.40;;;;;;5046653;28;20049;-50
2024/02/24 00:42:07;;;;;;;23.55;4.95;;;9.20;90.50;;;;;;5046534;28;20464;-50
2024/02/24 00:44:32;;;;;;;22.75;5.10;;;9.20;90.50;;;;;;5046614;28;20029;-50
2024/02/24 00:46:58;;;;;;;20.95;4.43;;;9.20;90.60;;;;;;5029919;28;20056;-50
2024/02/24 00:49:24;;;;;;;23.15;5.00;;;9.10;90.60;;;;;;5046279;28;20033;-50
2024/02/24 00:51:49;;;;;;;17.27;4.43;;;9.10;90.50;;;;;;5046420;28;20030;-50
2024/02/24 00:54:15;;;;;;;32.95;5.00;;;9.10;90.60;;;;;;5029697;28;20433;-50
2024/02/24 00:56:40;;;;;;;28.55;5.13;;;9.10;90.60;;;;;;5029764;28;20034;-50
2024/02/24 00:59:06;;;;;;;22.67;4.22;;;9.10;90.60;;;;;;5047370;28;20030;-50
2024/02/24 01:01:32;;;;;;;24.55;4.57;;;9.00;90.60;;;;;;5047605;28;20504;-50
2024/02/24 01:03:57;;;;;;;26.50;3.65;;;9.00;90.60;;;;;;5029855;28;20029;-50
2024/02/24 01:06:23;;;;;;;22.15;4.80;;;9.00;90.60;;;;;;5046413;28;20388;-50
2024/02/24 01:08:48;;;;;;;23.75;4.13;;;9.00;90.70;;;;;;5047495;28;20052;-50
2024/02/24 01:11:15;;;;;;;24.60;4.18;;;9.00;90.70;;;;;;5046104;28;20025;-51
2024/02/24 01:13:41;;;;;;;16.40;4.05;;;9.00;90.70;;;;;;5029566;28;20022;-50
2024/02/24 01:16:07;;;;;;;23.08;4.18;;;9.00;90.70;;;;;;5029455;28;20029;-50
2024/02/24 01:18:32;;;;;;;13.35;3.35;;;9.00;90.80;;;;;;5029331;28;20030;-50
2024/02/24 01:20:58;;;;;;;23.30;4.43;;;8.90;90.80;;;;;;5046069;28;20021;-50
2024/02/24 01:23:24;;;;;;;18.25;3.63;;;8.90;90.80;;;;;;5046872;28;20033;-50
2024/02/24 01:25:50;;;;;;;20.88;3.92;;;8.90;90.80;;;;;;5045636;28;20030;-50
2024/02/24 01:28:16;;;;;;;15.70;4.68;;;8.90;90.80;;;;;;5012816;28;20037;-50
2024/02/24 01:30:42;;;;;;;18.27;3.85;;;8.90;90.80;;;;;;5046850;28;20173;-50
2024/02/24 01:33:08;;;;;;;17.98;4.07;;;8.90;90.90;;;;;;5046919;28;20034;-50
2024/02/24 01:35:35;;;;;;;11.77;3.38;;;8.90;90.90;;;;;;5045821;28;20036;-50
2024/02/24 01:38:01;;;;;;;12.30;3.75;;;8.90;90.90;;;;;;5045342;28;20075;-50
2024/02/24 01:40:26;;;;;;;17.33;3.95;;;8.80;90.90;;;;;;5046857;28;20032;-50
2024/02/24 01:42:53;;;;;;;24.08;4.75;;;8.80;90.90;;;;;;5046873;28;20052;-59
2024/02/24 01:45:19;;;;;;;21.73;3.55;;;8.80;91.00;;;;;;5046749;28;20025;-59
2024/02/24 01:47:44;;;;;;;21.42;3.63;;;8.80;91.00;;;;;;5045694;28;20109;-58
2024/02/24 01:50:10;;;;;;;15.63;3.22;;;8.80;91.00;;;;;;5045842;28;20113;-58
2024/02/24 01:52:37;;;;;;;17.40;3.80;;;8.80;91.00;;;;;;5045391;28;20041;-59
2024/02/24 01:55:03;;;;;;;16.35;3.00;;;8.80;91.00;;;;;;5012511;28;20116;-58
2024/02/24 01:57:28;;;;;;;11.38;3.28;;;8.80;91.00;;;;;;5028818;28;20034;-59
2024/02/24 01:59:55;;;;;;;13.85;3.40;;;8.80;91.10;;;;;;5028175;28;20085;-59
2024/02/24 02:02:21;;;;;;;20.77;3.58;;;8.70;91.10;;;;;;5045250;28;20052;-58
2024/02/24 02:04:47;;;;;;;12.35;3.40;;;8.70;91.10;;;;;;5028854;28;20031;-59
2024/02/24 02:07:12;;;;;;;15.20;3.92;;;8.70;91.20;;;;;;5028749;28;20104;-58
2024/02/24 02:09:54;;;;;;;12.13;3.03;;;8.70;91.10;;;;;;5046342;28;20037;-58
2024/02/24 02:12:20;;;;;;;13.85;2.97;;;8.70;91.10;;;;;;5046517;28;20059;-59
2024/02/24 02:14:45;;;;;;;9.50;2.88;;;8.70;91.20;;;;;;5045604;28;20532;-59
2024/02/24 02:17:11;;;;;;;10.10;2.70;;;8.60;91.20;;;;;;5046495;28;20052;-59
2024/02/24 02:19:36;;;;;;;11.38;3.00;;;8.60;91.20;;;;;;5028455;28;20029;-59
2024/02/24 02:22:02;;;;;;;10.02;2.67;;;8.60;91.20;;;;;;5045083;28;20030;-59
2024/02/24 02:24:28;;;;;;;8.98;2.80;;;8.60;91.20;;;;;;5012207;28;20040;-59
2024/02/24 02:26:53;;;;;;;12.95;3.00;;;8.60;91.30;;;;;;5028248;28;20036;-59
2024/02/24 02:29:19;;;;;;;11.68;2.95;;;8.60;91.30;;;;;;5044826;28;20067;-58
2024/02/24 02:31:45;;;;;;;8.65;2.95;;;8.60;91.30;;;;;;5044863;28;20104;-58
2024/02/24 02:34:11;;;;;;;12.43;2.67;;;8.60;91.30;;;;;;5046048;28;20057;-59
2024/02/24 02:36:36;;;;;;;12.88;3.00;;;8.50;91.30;;;;;;5044546;28;20160;-59
2024/02/24 02:39:02;;;;;;;12.85;3.15;;;8.50;91.30;;;;;;5044814;28;20029;-58
2024/02/24 02:41:28;;;;;;;9.75;2.25;;;8.50;91.40;;;;;;5044754;28;20065;-59
2024/02/24 02:43:53;;;;;;;8.85;2.20;;;8.60;91.30;;;;;;5044913;28;20021;-59
2024/02/24 02:46:19;;;;;;;13.45;2.60;;;8.60;91.30;;;;;;5044785;28;20048;-58
2024/02/24 02:48:44;;;;;;;10.90;2.50;;;8.50;91.30;;;;;;5045976;28;20044;-58
2024/02/24 02:51:10;;;;;;;11.13;2.35;;;8.50;91.30;;;;;;5046110;28;20029;-59
2024/02/24 02:53:36;;;;;;;8.75;2.38;;;8.50;91.30;;;;;;5045894;28;20030;-59
2024/02/24 02:56:01;;;;;;;10.85;2.17;;;8.50;91.40;;;;;;5044623;28;20057;-59
2024/02/24 02:58:27;;;;;;;9.68;2.45;;;8.40;91.40;;;;;;5044578;28;20387;-58
2024/02/24 03:00:52;;;;;;;10.07;2.28;;;8.40;91.40;;;;;;5045373;28;20030;-58
2024/02/24 03:03:18;;;;;;;5.95;2.20;;;8.40;91.50;;;;;;5045124;28;20392;-59
2024/02/24 03:05:43;;;;;;;11.27;2.60;;;8.40;91.50;;;;;;5044731;28;20026;-59
2024/02/24 03:08:09;;;;;;;8.95;2.40;;;8.40;91.80;;;;;;5046436;28;20022;-58
2024/02/24 03:10:34;;;;;;;10.63;2.35;;;8.40;91.50;;;;;;5046434;28;20113;-59
2024/02/24 03:13:00;;;;;;;9.43;2.40;;;8.40;91.60;;;;;;5015145;28;20025;-59
2024/02/24 03:15:26;;;;;;;8.30;2.35;;;8.30;91.50;;;;;;5031758;28;20492;-59
2024/02/24 03:17:51;;;;;;;6.95;2.03;;;8.30;91.50;;;;;;5031829;28;20064;-59
2024/02/24 03:20:17;;;;;;;7.50;2.42;;;8.30;91.50;;;;;;5048263;28;20051;-59
2024/02/24 03:22:42;;;;;;;7.47;1.85;;;8.30;91.60;;;;;;5049346;28;20028;-58
2024/02/24 03:25:08;;;;;;;7.75;2.10;;;8.30;91.60;;;;;;5049321;28;20087;-59
2024/02/24 03:27:34;;;;;;;9.63;2.20;;;8.30;91.60;;;;;;5049316;28;20034;-58
2024/02/24 03:30:00;;;;;;;6.60;2.28;;;8.30;91.60;;;;;;5031383;28;20055;-50
2024/02/24 03:32:25;;;;;;;4.15;1.90;;;8.30;91.60;;;;;;5031508;28;20029;-50
2024/02/24 03:35:07;;;;;;;8.38;2.20;;;8.30;91.60;;;;;;5031414;28;20092;-50
2024/02/24 03:37:33;;;;;;;7.95;2.03;;;8.20;91.60;;;;;;5047709;28;20037;-50
2024/02/24 03:39:59;;;;;;;8.30;2.08;;;8.20;91.60;;;;;;5048148;28;20030;-50
2024/02/24 03:42:24;;;;;;;10.45;2.33;;;8.20;91.70;;;;;;5049305;28;20029;-50
2024/02/24 03:44:50;;;;;;;7.60;2.00;;;8.20;91.70;;;;;;5048920;28;20040;-50
2024/02/24 03:47:15;;;;;;;7.97;2.50;;;8.30;91.70;;;;;;5048996;28;20422;-50
2024/02/24 03:49:41;;;;;;;8.20;2.00;;;8.20;91.70;;;;;;5047652;28;20037;-50
2024/02/24 03:52:07;;;;;;;7.72;1.92;;;8.20;91.70;;;;;;5031129;28;20040;-50
2024/02/24 03:54:32;;;;;;;8.48;2.00;;;8.20;91.70;;;;;;5047527;28;20073;-50
2024/02/24 03:56:58;;;;;;;10.13;2.03;;;8.20;91.70;;;;;;5047293;28;20487;-50
2024/02/24 03:59:24;;;;;;;4.82;1.70;;;8.20;91.80;;;;;;5048787;28;20026;-50
2024/02/24 04:01:49;;;;;;;8.57;1.80;;;8.20;91.70;;;;;;5048600;28;20021;-50
2024/02/24 04:04:15;;;;;;;9.30;2.15;;;8.20;91.70;;;;;;5048642;28;20064;-50
2024/02/24 04:06:45;;;;;;;5.30;1.58;;;8.20;91.70;;;;;;5047327;28;20026;-50
2024/02/24 04:09:11;;;;;;;5.25;1.73;;;8.20;91.70;;;;;;5048667;28;20104;-50
2024/02/24 04:11:36;;;;;;;5.40;1.52;;;8.20;91.80;;;;;;5047345;28;20040;-50
2024/02/24 04:14:02;;;;;;;5.28;1.80;;;8.20;91.80;;;;;;5048309;28;20032;-50
2024/02/24 04:16:27;;;;;;;6.22;1.65;;;8.20;91.90;;;;;;5048412;28;20025;-50
2024/02/24 04:18:53;;;;;;;8.68;1.83;;;8.20;91.80;;;;;;5047184;28;20033;-50
2024/02/24 04:21:20;;;;;;;3.72;1.70;;;8.20;91.80;;;;;;5030404;28;20025;-50
2024/02/24 04:23:46;;;;;;;6.90;1.58;;;8.20;91.80;;;;;;5046163;28;20100;-50
2024/02/24 04:26:12;;;;;;;5.25;1.70;;;8.20;91.80;;;;;;5048229;28;20021;-50
2024/02/24 04:28:37;;;;;;;4.45;1.40;;;8.20;91.80;;;;;;5046903;28;20040;-50
2024/02/24 04:31:03;;;;;;;4.22;1.60;;;8.20;91.80;;;;;;5047983;28;20034;-50
2024/02/24 04:33:28;;;;;;;5.18;1.90;;;8.20;91.90;;;;;;5046657;28;20033;-50
2024/02/24 04:35:54;;;;;;;5.85;1.60;;;8.20;91.90;;;;;;5048038;28;20033;-50
2024/02/24 04:38:20;;;;;;;2.90;1.20;;;8.10;91.80;;;;;;5047558;28;20030;-50
2024/02/24 04:40:45;;;;;;;4.90;1.83;;;8.10;91.90;;;;;;5047952;28;20427;-50
2024/02/24 04:43:11;;;;;;;4.13;1.23;;;8.20;91.90;;;;;;5047962;28;20025;-50
2024/02/24 04:45:36;;;;;;;6.22;1.75;;;8.10;91.90;;;;;;5046441;28;20036;-50
2024/02/24 04:48:03;;;;;;;5.05;1.30;;;8.20;92.00;;;;;;5047787;28;20030;-50
2024/02/24 04:50:28;;;;;;;3.47;1.50;;;8.10;92.00;;;;;;5046588;28;20045;-50
2024/02/24 04:52:54;;;;;;;4.93;1.33;;;8.10;92.10;;;;;;5046508;28;20038;-50
2024/02/24 04:55:19;;;;;;;4.28;1.35;;;8.10;92.00;;;;;;5029944;28;20033;-50
2024/02/24 04:57:45;;;;;;;4.18;1.58;;;8.10;92.00;;;;;;5046378;28;20037;-50
2024/02/24 05:00:11;;;;;;;3.03;1.50;;;8.10;92.10;;;;;;5047346;28;20053;-50
2024/02/24 05:02:37;;;;;;;2.53;1.30;;;8.10;92.00;;;;;;5046160;28;20032;-50
2024/02/24 05:05:02;;;;;;;2.92;1.05;;;8.10;92.00;;;;;;5046261;28;20523;-50
2024/02/24 05:07:28;;;;;;;4.00;1.15;;;8.10;92.10;;;;;;5046153;28;20044;-50
2024/02/24 05:09:53;;;;;;;5.97;1.27;;;8.10;92.10;;;;;;5029799;28;20022;-50
2024/02/24 05:12:19;;;;;;;3.28;1.50;;;8.10;92.10;;;;;;5045972;28;20053;-50
2024/02/24 05:14:47;;;;;;;4.18;1.10;;;8.10;92.00;;;;;;5045965;28;20030;-50
2024/02/24 05:17:14;;;;;;;2.35;0.95;;;8.10;92.10;;;;;;5045937;28;20038;-50
2024/02/24 05:19:40;;;;;;;2.40;1.08;;;8.10;92.00;;;;;;5045825;28;20389;-50
2024/02/24 05:22:06;;;;;;;4.25;1.17;;;8.10;92.10;;;;;;5045948;28;20040;-50
2024/02/24 05:24:32;;;;;;;2.00;1.10;;;8.10;92.10;;;;;;5045889;28;20026;-50
2024/02/24 05:26:57;;;;;;;1.65;0.90;;;8.10;92.10;;;;;;5029227;28;20025;-50
2024/02/24 05:29:23;;;;;;;2.33;1.20;;;8.00;92.10;;;;;;5047007;28;20061;-50
2024/02/24 05:31:49;;;;;;;3.92;1.20;;;8.10;92.10;;;;;;5046927;28;20028;-50
2024/02/24 05:34:14;;;;;;;2.95;1.05;;;8.10;92.10;;;;;;5046685;28;20029;-50
2024/02/24 05:36:40;;;;;;;1.60;1.00;;;8.10;92.20;;;;;;5028863;28;20026;-50
2024/02/24 05:39:06;;;;;;;2.97;0.70;;;8.10;92.20;;;;;;5045811;28;20041;-50
2024/02/24 05:41:32;;;;;;;3.05;0.82;;;8.10;92.20;;;;;;5046876;28;20097;-50
2024/02/24 05:43:58;;;;;;;2.90;0.95;;;8.10;92.20;;;;;;5045683;28;20036;-50
2024/02/24 05:46:24;;;;;;;3.92;0.90;;;8.00;92.20;;;;;;5029124;28;20045;-50
2024/02/24 05:48:49;;;;;;;4.25;0.70;;;8.10;92.20;;;;;;5046715;28;20037;-50
2024/02/24 05:51:16;;;;;;;1.65;0.90;;;8.10;92.20;;;;;;5045559;28;20068;-50
2024/02/24 05:53:42;;;;;;;2.05;0.85;;;8.20;92.20;;;;;;5028994;28;20040;-50
2024/02/24 05:56:08;;;;;;;1.27;0.80;;;8.00;92.10;;;;;;5028802;28;20029;-50
2024/02/24 05:58:33;;;;;;;1.35;0.90;;;8.10;92.20;;;;;;5028702;28;20057;-50
2024/02/24 06:01:02;;;;;;;1.55;0.90;;;8.10;92.10;;;;;;5045183;28;20036;-50
2024/02/24 06:03:28;;;;;;;1.33;0.77;;;8.00;92.10;;;;;;5046719;28;20017;-50
2024/02/24 06:05:54;;;;;;;2.75;1.15;;;8.10;92.20;;;;;;5029013;28;20108;-50
2024/02/24 06:08:19;;;;;;;3.35;0.75;;;8.10;92.10;;;;;;5045137;28;20128;-50
2024/02/24 06:10:46;;;;;;;0.90;0.65;;;8.10;92.10;;;;;;5046459;28;20032;-50
2024/02/24 06:13:12;;;;;;;3.75;0.70;;;8.10;92.10;;;;;;5045055;28;20026;-50
2024/02/24 06:15:37;;;;;;;1.23;0.60;;;8.00;92.10;;;;;;5045093;28;20036;-50
2024/02/24 06:18:03;;;;;;;2.40;0.90;;;8.10;92.10;;;;;;5012073;28;20040;-50
2024/02/24 06:20:29;;;;;;;1.73;0.70;;;8.10;92.10;;;;;;5046343;28;20032;-50
2024/02/24 06:22:54;;;;;;;4.65;0.98;;;8.10;92.20;;;;;;5045142;28;20030;-50
2024/02/24 06:25:20;;;;;;;1.50;0.70;;;8.10;92.10;;;;;;5046144;28;20057;-50
2024/02/24 06:27:46;;;;;;;1.58;0.65;;;8.10;92.10;;;;;;5028639;28;20085;-50
2024/02/24 06:30:12;;;;;;;4.90;0.70;;;8.10;92.10;;;;;;5044904;28;20029;-50
2024/02/24 06:32:39;;;;;;;1.95;0.88;;;8.10;92.10;;;;;;5044761;28;20058;-50
2024/02/24 06:35:04;;;;;;;2.08;0.52;;;8.10;92.10;;;;;;5046476;28;20029;-51
2024/02/24 06:37:30;;;;;;;2.45;0.65;;;8.10;92.10;;;;;;5046167;28;20064;-50
2024/02/24 06:39:56;;;;;;;1.00;0.65;;;8.10;92.10;;;;;;5046108;28;20025;-50
2024/02/24 06:42:21;;;;;;;0.95;0.60;;;8.10;92.10;;;;;;5046082;28;20028;-50
2024/02/24 06:44:47;;;;;;;3.28;0.98;;;8.10;92.10;;;;;;5011885;28;20030;-50
2024/02/24 06:47:13;;;;;;;13.63;1.40;;;8.10;92.10;;;;;;5048061;28;20396;-50
2024/02/24 06:49:39;;;;;;;7.35;1.45;;;8.10;92.10;;;;;;5050036;28;20037;-50
2024/02/24 06:52:05;;;;;;;17.35;2.15;;;8.10;92.10;;;;;;5048630;28;20051;-50
2024/02/24 06:54:31;;;;;;;11.80;1.77;;;8.10;92.20;;;;;;5050164;28;20044;-50
2024/02/24 06:56:56;;;;;;;10.23;2.42;;;8.10;92.20;;;;;;5032130;28;20045;-50
2024/02/24 06:59:22;;;;;;;9.20;2.13;;;8.10;92.20;;;;;;5031984;28;20048;-50
2024/02/24 07:01:48;;;;;;;14.15;2.38;;;8.10;92.10;;;;;;5049744;28;20494;-50
2024/02/24 07:04:15;;;;;;;14.55;2.38;;;8.10;92.10;;;;;;5048320;28;20057;-50
2024/02/24 07:06:41;;;;;;;19.77;3.15;;;8.10;92.10;;;;;;5048231;28;20040;-50
2024/02/24 07:09:07;;;;;;;14.23;2.92;;;8.20;92.20;;;;;;5048302;28;20469;-50
2024/02/24 07:11:32;;;;;;;17.70;4.15;;;8.20;92.20;;;;;;5031473;28;20021;-50
2024/02/24 07:13:58;;;;;;;28.10;4.55;;;8.20;92.20;;;;;;5048017;28;20029;-50
2024/02/24 07:16:24;;;;;;;22.92;3.30;;;8.20;92.40;;;;;;5048115;28;20051;-50
2024/02/24 07:18:49;;;;;;;38.35;4.75;;;8.20;92.40;;;;;;5048146;28;20030;-50
2024/02/24 07:21:15;;;;;;;23.70;3.88;;;8.20;92.70;;;;;;5031850;28;20025;-50
2024/02/24 07:23:40;;;;;;;27.00;4.45;;;8.30;92.80;;;;;;5048339;28;20091;-50
2024/02/24 07:26:06;;;;;;;21.02;3.67;;;8.20;92.70;;;;;;5049345;28;20065;-50
2024/02/24 07:28:31;;;;;;;21.58;3.42;;;8.20;92.70;;;;;;5031540;28;20035;-50
2024/02/24 07:30:57;;;;;;;36.65;4.90;;;8.30;92.70;;;;;;5047662;28;20038;-50
2024/02/24 07:33:22;;;;;;;18.75;4.28;;;8.30;92.80;;;;;;5047896;28;20109;-50
2024/02/24 07:35:48;;;;;;;37.92;5.13;;;8.20;92.70;;;;;;5031261;28;20041;-50
2024/02/24 07:38:14;;;;;;;18.65;3.78;;;8.20;92.70;;;;;;5047015;28;20037;-50
2024/02/24 07:40:40;;;;;;;30.05;3.78;;;8.30;92.60;;;;;;5036404;28;20056;-50
2024/02/24 07:43:05;;;;;;;25.92;3.85;;;8.30;92.60;;;;;;5040505;28;20020;-50
2024/02/24 07:45:31;;;;;;;18.23;3.67;;;8.30;92.40;;;;;;5042702;28;20033;-50
2024/02/24 07:47:56;;;;;;;11.70;3.28;;;8.30;92.40;;;;;;5040358;28;20033;-50
2024/02/24 07:50:22;;;;;;;27.20;3.83;;;8.30;92.40;;;;;;5037414;28;20045;-50
2024/02/24 07:52:48;;;;;;;17.45;3.83;;;8.30;92.40;;;;;;5020896;28;20059;-50
2024/02/24 07:55:14;;;;;;;19.27;4.28;;;8.30;92.40;;;;;;5024442;28;20052;-50
2024/02/24 07:57:39;;;;;;;21.30;3.80;;;8.30;92.40;;;;;;5039532;28;20429;-50
2024/02/24 08:00:06;;;;;;;27.60;3.83;;;8.30;92.40;;;;;;5039507;28;20026;-50
2024/02/24 08:02:32;;;;;;;22.33;3.53;;;8.30;92.40;;;;;;5039390;28;20040;-50
2024/02/24 08:04:58;;;;;;;17.40;3.88;;;8.30;92.40;;;;;;5038469;28;20045;-50
2024/02/24 08:07:23;;;;;;;17.02;3.13;;;8.30;92.40;;;;;;5041279;28;20105;-50
2024/02/24 08:09:49;;;;;;;14.65;3.25;;;8.30;92.50;;;;;;5043926;28;20108;-50
2024/02/24 08:12:15;;;;;;;29.15;4.30;;;8.30;92.50;;;;;;5045124;28;20022;-50
2024/02/24 08:14:40;;;;;;;19.23;4.43;;;8.40;92.50;;;;;;5045369;28;20432;-50
2024/02/24 08:17:06;;;;;;;18.58;3.38;;;8.40;92.60;;;;;;5043928;28;20044;-50
2024/02/24 08:19:33;;;;;;;20.52;3.85;;;8.40;92.60;;;;;;5043316;28;20143;-50
2024/02/24 08:22:00;;;;;;;15.55;3.25;;;8.40;92.60;;;;;;5042077;28;20025;-50
2024/02/24 08:24:25;;;;;;;25.50;3.95;;;8.40;92.60;;;;;;5044035;28;20049;-50
2024/02/24 08:26:51;;;;;;;29.45;5.10;;;8.40;92.60;;;;;;5044899;28;20026;-50
2024/02/24 08:29:17;;;;;;;24.20;4.55;;;8.40;92.60;;;;;;5041941;28;20120;-50
2024/02/24 08:31:42;;;;;;;51.33;7.00;;;8.50;92.70;;;;;;5043394;28;20030;-50
2024/02/24 08:34:08;;;;;;;40.83;4.75;;;8.50;92.70;;;;;;5044072;28;20072;-50
2024/02/24 08:36:34;;;;;;;50.00;5.43;;;8.50;92.70;;;;;;5026741;28;20113;-50
2024/02/24 08:39:00;;;;;;;66.13;6.70;;;8.50;92.80;;;;;;5040138;28;20038;-50
2024/02/24 08:41:26;;;;;;;51.70;6.65;;;8.50;92.80;;;;;;5043734;28;20022;-50
2024/02/24 08:43:52;;;;;;;44.65;6.13;;;8.50;92.80;;;;;;5009598;28;20026;-50
2024/02/24 08:46:19;;;;;;;38.70;5.35;;;8.50;92.80;;;;;;5026908;28;20033;-50
2024/02/24 08:48:45;;;;;;;52.35;6.43;;;8.60;92.70;;;;;;5043946;28;20034;-50
2024/02/24 08:51:11;;;;;;;47.67;6.13;;;8.60;92.70;;;;;;5023422;28;20026;-50
2024/02/24 08:53:36;;;;;;;61.13;7.47;;;8.50;92.70;;;;;;5024349;28;20072;-50
2024/02/24 08:56:02;;;;;;;37.35;6.45;;;8.60;92.70;;;;;;5039485;28;20415;-50
2024/02/24 08:58:28;;;;;;;50.58;6.13;;;8.60;92.70;;;;;;5044900;28;20030;-50
2024/02/24 09:00:56;;;;;;;40.47;4.80;;;8.60;92.70;;;;;;5042659;28;20057;-50
2024/02/24 09:03:22;;;;;;;33.10;5.20;;;8.60;92.70;;;;;;5005829;28;20029;-50
2024/02/24 09:05:47;;;;;;;83.18;6.97;;;8.60;92.70;;;;;;5025569;28;20032;-50
2024/02/24 09:08:13;;;;;;;41.33;5.40;;;8.60;92.70;;;;;;5042921;28;20476;-50
2024/02/24 09:10:38;;;;;;;37.17;5.30;;;8.60;92.70;;;;;;5025082;28;20061;-50
2024/02/24 09:13:05;;;;;;;53.35;6.63;;;8.60;92.60;;;;;;5042105;28;20420;-50
2024/02/24 09:15:30;;;;;;;56.20;7.65;;;8.70;92.60;;;;;;5043567;28;20044;-50
2024/02/24 09:17:56;;;;;;;67.10;8.52;;;8.70;92.60;;;;;;5041844;28;20038;-50
2024/02/24 09:20:21;;;;;;;60.95;7.80;;;8.70;92.70;;;;;;5010514;28;20472;-50
2024/02/24 09:22:48;;;;;;;73.18;8.20;;;8.70;92.70;;;;;;5044247;28;20108;-50
2024/02/24 09:25:14;;;;;;;89.40;8.30;;;8.70;92.60;;;;;;5026964;28;20029;-50
2024/02/24 09:27:41;;;;;;;134.98;13.23;;;8.70;92.50;;;;;;5042421;28;20036;-50
2024/02/24 09:30:10;;;;;;;96.70;10.38;;;8.80;92.50;;;;;;5041439;28;20117;-50
2024/02/24 09:32:36;;;;;;;114.38;12.70;;;8.80;92.60;;;;;;5045415;28;20053;-50
2024/02/24 09:35:02;;;;;;;118.60;14.35;;;8.80;92.60;;;;;;5043598;28;20038;-50
2024/02/24 09:37:28;;;;;;;157.05;13.85;;;8.80;92.50;;;;;;5042825;28;20057;-50
2024/02/24 09:39:53;;;;;;;131.23;14.15;;;8.90;92.40;;;;;;5024592;28;20184;-50
2024/02/24 09:42:26;;;;;;;142.80;13.50;;;8.90;92.40;;;;;;5041706;28;20024;-50
2024/02/24 09:44:56;;;;;;;132.98;14.40;;;9.00;92.20;;;;;;5043924;28;20148;-50
2024/02/24 09:47:22;;;;;;;156.30;15.25;;;9.00;92.10;;;;;;5042904;28;20029;-50
2024/02/24 09:49:47;;;;;;;142.55;14.32;;;9.00;92.20;;;;;;5009615;28;20037;-50
2024/02/24 09:52:13;;;;;;;132.15;13.45;;;9.10;92.20;;;;;;5035438;28;20028;-50
2024/02/24 09:54:38;;;;;;;144.82;15.40;;;9.10;92.30;;;;;;5026739;28;20543;-50
2024/02/24 09:57:04;;;;;;;134.77;15.75;;;9.10;92.30;;;;;;5026202;28;20051;-50
2024/02/24 09:59:30;;;;;;;174.43;15.43;;;9.10;92.20;;;;;;5042921;28;20116;-50
2024/02/24 10:01:56;;;;;;;193.48;18.10;;;9.10;91.90;;;;;;5026195;28;20500;-50
2024/02/24 10:04:21;;;;;;;183.52;18.52;;;9.10;92.00;;;;;;5044016;28;20032;-50
2024/02/24 10:06:47;;;;;;;149.27;16.38;;;9.20;92.10;;;;;;5049755;28;20014;-50
2024/02/24 10:09:12;;;;;;;156.40;15.55;;;9.20;92.10;;;;;;5025190;28;20044;-50
2024/02/24 10:11:39;;;;;;;200.45;18.10;;;9.20;92.00;;;;;;5039369;28;20026;-50
2024/02/24 10:14:08;;;;;;;177.40;19.98;;;9.30;91.90;;;;;;5048894;28;20032;-50
2024/02/24 10:16:35;;;;;;;219.40;21.25;;;9.20;92.10;;;;;;5032258;28;20471;-50
2024/02/24 10:19:01;;;;;;;228.68;23.70;;;9.30;92.20;;;;;;5044172;28;20029;-50
2024/02/24 10:21:26;;;;;;;194.30;19.48;;;9.30;92.30;;;;;;5033602;28;20020;-50
2024/02/24 10:23:52;;;;;;;172.95;20.25;;;9.40;92.10;;;;;;5042657;28;20021;-51
2024/02/24 10:26:18;;;;;;;211.65;20.77;;;9.50;92.10;;;;;;5045711;28;20113;-50
2024/02/24 10:28:44;;;;;;;218.60;21.23;;;9.40;91.90;;;;;;5036979;28;20030;-50
2024/02/24 10:31:09;;;;;;;193.70;20.83;;;9.50;92.00;;;;;;5047152;28;20021;-50
2024/02/24 10:33:36;;;;;;;237.73;23.30;;;9.50;91.90;;;;;;5047798;28;20435;-51
2024/02/24 10:36:02;;;;;;;200.27;20.88;;;9.60;91.90;;;;;;5027561;28;20105;-50
2024/02/24 10:38:28;;;;;;;243.43;26.33;;;9.60;91.80;;;;;;5042628;28;20088;-50
2024/02/24 10:40:53;;;;;;;254.45;25.23;;;9.60;91.60;;;;;;5021338;28;20034;-50
2024/02/24 10:43:20;;;;;;;240.43;24.00;;;9.70;91.60;;;;;;5036199;28;20071;-50
2024/02/24 10:45:46;;;;;;;236.50;25.05;;;9.70;91.50;;;;;;5022381;28;20064;-50
2024/02/24 10:48:11;;;;;;;256.55;27.30;;;9.70;91.50;;;;;;5037335;28;21385;-50
2024/02/24 10:50:39;;;;;;;242.48;26.20;;;9.80;91.30;;;;;;5041102;28;20120;-50
2024/02/24 10:53:04;;;;;;;274.55;26.25;;;9.80;91.20;;;;;;5024185;28;20068;-50
2024/02/24 10:55:30;;;;;;;293.95;30.10;;;9.80;91.20;;;;;;5039750;28;20033;-50
2024/02/24 10:57:56;;;;;;;235.13;25.58;;;9.80;91.00;;;;;;5037230;28;20037;-50
2024/02/24 11:00:26;;;;;;;245.82;24.58;;;9.90;91.00;;;;;;5008058;28;20065;-50
2024/02/24 11:02:52;;;;;;;268.10;28.70;;;9.90;90.90;;;;;;5038481;28;20037;-50
2024/02/24 11:05:18;;;;;;;282.98;29.02;;;9.90;90.70;;;;;;5041594;28;20021;-50
2024/02/24 11:07:43;;;;;;;241.98;27.33;;;9.90;90.70;;;;;;5040276;28;20337;-50
2024/02/24 11:10:18;;;;;;;245.70;25.05;;;10.00;90.70;;;;;;5042517;28;20051;-50
2024/02/24 11:12:44;;;;;;;268.00;27.23;;;9.90;90.70;;;;;;5042757;28;20059;-50
2024/02/24 11:15:23;;;;;;;260.85;27.08;;;10.00;90.70;;;;;;5037033;28;20057;-50
2024/02/24 11:17:52;;;;;;;240.75;28.20;;;10.00;91.10;;;;;;5036825;28;20055;-50
2024/02/24 11:20:33;;;;;;;266.35;28.73;;;10.00;90.70;;;;;;5040931;28;20029;-50
2024/02/24 11:23:17;;;;;;;256.88;27.13;;;10.10;90.50;;;;;;5036048;28;20026;-50
2024/02/24 11:25:43;;;;;;;295.67;33.70;;;10.10;90.60;;;;;;5036698;28;20037;-50
2024/02/24 11:28:08;;;;;;;381.92;35.20;;;10.10;90.50;;;;;;5038054;28;20029;-50
2024/02/24 11:30:34;;;;;;;298.10;30.92;;;10.20;90.50;;;;;;5038579;28;20042;-50
2024/02/24 11:33:23;;;;;;;320.98;31.77;;;10.20;90.40;;;;;;5042951;28;20515;-50
2024/02/24 11:35:50;;;;;;;333.85;36.28;;;10.20;90.20;;;;;;5042333;28;20033;-50
2024/02/24 11:38:16;;;;;;;329.95;33.00;;;10.30;90.30;;;;;;5043746;28;20033;-50
2024/02/24 11:40:43;;;;;;;359.38;39.13;;;10.30;90.20;;;;;;5031184;28;20464;-50
2024/02/24 11:43:08;;;;;;;368.73;41.25;;;10.40;90.20;;;;;;5012311;28;20029;-50
2024/02/24 11:45:35;;;;;;;440.40;49.20;;;10.40;90.10;;;;;;5039508;28;20041;-50
2024/02/24 11:48:01;;;;;;;390.55;39.25;;;10.50;90.10;;;;;;5042926;28;20507;-50
2024/02/24 11:50:26;;;;;;;375.48;38.63;;;10.50;90.00;;;;;;5041961;28;20052;-50
2024/02/24 11:52:52;;;;;;;410.27;41.08;;;10.60;89.90;;;;;;5043148;28;20026;-50
2024/02/24 11:55:18;;;;;;;370.33;37.60;;;10.70;89.60;;;;;;5038444;28;20048;-50
2024/02/24 11:57:43;;;;;;;360.08;35.33;;;10.70;89.40;;;;;;5042843;28;20175;-50
2024/02/24 12:00:09;;;;;;;371.10;36.72;;;10.70;88.90;;;;;;5022522;28;20014;-51
2024/02/24 12:02:35;;;;;;;372.02;37.42;;;10.70;89.10;;;;;;5040506;28;20030;-51
2024/02/24 12:05:15;;;;;;;319.13;37.28;;;10.80;89.40;;;;;;5042127;28;20049;-51
2024/02/24 12:07:42;;;;;;;521.67;54.85;;;10.80;89.10;;;;;;5052392;28;20033;-51
2024/02/24 12:10:08;;;;;;;387.65;43.00;;;10.80;89.20;;;;;;5027048;28;20029;-51
2024/02/24 12:12:34;;;;;;;608.55;59.40;;;10.80;89.00;;;;;;5042816;28;20101;-51
2024/02/24 12:14:59;;;;;;;431.77;45.25;;;10.90;89.00;;;;;;5038549;28;20037;-51
2024/02/24 12:17:25;;;;;;;395.58;43.15;;;10.90;89.50;;;;;;5025698;28;20052;-51
2024/02/24 12:19:51;;;;;;;353.63;39.83;;;10.70;89.10;;;;;;5044139;28;20108;-51
2024/02/24 12:22:17;;;;;;;400.02;40.22;;;11.00;89.10;;;;;;5028163;28;20104;-51
2024/02/24 12:24:43;;;;;;;390.70;42.75;;;11.00;89.00;;;;;;5033344;28;20030;-51
2024/02/24 12:27:09;;;;;;;376.27;42.13;;;11.10;89.10;;;;;;5027227;28;20103;-51
2024/02/24 12:29:34;;;;;;;429.02;43.65;;;11.10;89.20;;;;;;5041040;28;20088;-51
2024/02/24 12:32:04;;;;;;;366.00;41.83;;;11.10;89.00;;;;;;5043333;28;20027;-51
2024/02/24 12:34:30;;;;;;;371.48;42.55;;;11.20;89.00;;;;;;5020690;28;20030;-51
2024/02/24 12:36:56;;;;;;;395.35;45.40;;;11.20;89.00;;;;;;5041316;28;20032;-51